createdAt,value
2022-07-29T00:05:14.629Z,99908.88
2022-07-29T00:15:20.441Z,99907.25
2022-07-29T00:25:26.524Z,99922.23
2022-07-29T00:35:47.467Z,99932.58
2022-07-29T00:45:53.761Z,99934.14
2022-07-29T00:55:59.853Z,99929.73
2022-07-29T01:06:06.890Z,99923.20
2022-07-29T01:16:17.362Z,99923.06
2022-07-29T01:26:35.256Z,99923.86
2022-07-29T01:36:49.207Z,99920.29
2022-07-29T01:47:00.584Z,99914.09
2022-07-29T01:57:08.845Z,99910.50
2022-07-29T02:07:19.083Z,99911.42
2022-07-29T02:17:29.824Z,99901.62
2022-07-29T02:27:37.507Z,99899.91
2022-07-29T02:37:45.375Z,99888.36
2022-07-29T02:47:53.531Z,99884.65
2022-07-29T02:58:03.110Z,99882.98
2022-07-29T03:08:11.471Z,99889.66
2022-07-29T03:18:18.631Z,99887.50
2022-07-29T03:28:27.041Z,99881.38
2022-07-29T03:38:32.675Z,99882.55
2022-07-29T03:48:42.245Z,99888.52
2022-07-29T03:58:48.764Z,99890.48
2022-07-29T04:08:54.662Z,99893.66
2022-07-29T04:19:01.276Z,99904.09
2022-07-29T04:29:07.182Z,99900.33
2022-07-29T04:39:13.033Z,99890.90
2022-07-29T04:49:19.116Z,99893.46
2022-07-29T04:59:25.978Z,99887.98
2022-07-29T05:09:33.255Z,99891.11
2022-07-29T05:19:39.308Z,99890.56
2022-07-29T05:29:46.004Z,99889.18
2022-07-29T05:39:56.683Z,99888.45
2022-07-29T05:50:02.844Z,99888.27
2022-07-29T06:00:11.114Z,99893.81
2022-07-29T06:10:16.878Z,99896.76
2022-07-29T06:20:27.199Z,99896.38
2022-07-29T06:30:33.338Z,99893.59
2022-07-29T06:41:00.042Z,99886.97
2022-07-29T06:51:07.042Z,99889.12
2022-07-29T07:01:12.941Z,99895.48
2022-07-29T07:11:19.841Z,99895.94
2022-07-29T07:21:25.696Z,99889.08
2022-07-29T07:31:31.536Z,99889.05
2022-07-29T07:41:37.738Z,99889.96
2022-07-29T07:51:43.583Z,99878.94
2022-07-29T08:01:56.923Z,99879.34
2022-07-29T08:12:04.849Z,99874.75
2022-07-29T08:22:11.052Z,99874.30
2022-07-29T08:32:36.854Z,99878.77
2022-07-29T08:42:43.457Z,99889.52
2022-07-29T08:52:52.896Z,99887.71
2022-07-29T09:03:02.730Z,99887.92
2022-07-29T09:13:09.303Z,99886.55
2022-07-29T09:23:24.122Z,99889.38
2022-07-29T09:33:36.873Z,99883.27
2022-07-29T09:43:43.531Z,99883.91
2022-07-29T09:53:49.318Z,99865.29
2022-07-29T10:03:56.086Z,99854.31
2022-07-29T10:14:03.767Z,99854.38
2022-07-29T10:24:14.940Z,99841.70
2022-07-29T10:34:32.779Z,99840.52
2022-07-29T10:44:42.055Z,99832.07
2022-07-29T10:54:53.663Z,99831.96
2022-07-29T11:05:07.518Z,99819.63
2022-07-29T11:15:20.088Z,99809.73
2022-07-29T11:25:42.770Z,99804.56
2022-07-29T11:36:16.789Z,99803.05
2022-07-29T11:46:50.744Z,99804.63
2022-07-29T11:56:57.029Z,99813.47
2022-07-29T12:17:30.545Z,99797.65
2022-07-29T12:27:40.503Z,99785.95
2022-07-29T12:37:49.857Z,99778.79
2022-07-29T12:47:56.068Z,99775.11
2022-07-29T12:58:01.869Z,99764.66
2022-07-29T13:08:20.232Z,99754.06
2022-07-29T13:18:33.753Z,99749.77
2022-07-29T13:28:40.066Z,99743.98
2022-07-29T13:38:45.855Z,99736.20
2022-07-29T13:48:51.760Z,99722.90
2022-07-29T13:58:58.300Z,99724.48
2022-07-29T14:09:07.174Z,99719.00
2022-07-29T14:19:13.175Z,99716.05
2022-07-29T14:29:19.435Z,99710.62
2022-07-29T14:39:25.276Z,99695.02
2022-07-29T14:49:37.821Z,99688.53
2022-07-29T14:59:43.607Z,99686.39
2022-07-29T15:09:50.187Z,99675.35
2022-07-29T15:19:56.665Z,99658.77
2022-07-29T15:30:02.421Z,99659.56
2022-07-29T15:40:10.739Z,99656.94
2022-07-29T15:50:16.931Z,99656.06
2022-07-29T16:00:24.548Z,99650.27
2022-07-29T16:10:30.221Z,99641.08
2022-07-29T16:20:36.103Z,99637.77
2022-07-29T16:30:42.639Z,99643.53
2022-07-29T16:40:48.586Z,99645.85
2022-07-29T16:50:54.425Z,99643.77
2022-07-29T17:01:00.448Z,99643.49
2022-07-29T17:11:06.339Z,99648.81
2022-07-29T17:21:12.134Z,99652.36
2022-07-29T17:31:18.171Z,99658.25
2022-07-29T17:41:24.824Z,99654.54
2022-07-29T17:51:31.139Z,99653.89
2022-07-29T18:01:37.431Z,99652.12
2022-07-29T18:11:44.573Z,99644.67
2022-07-29T18:21:54.853Z,99651.33
2022-07-29T18:32:01.858Z,99655.98
2022-07-29T18:42:08.421Z,99657.59
2022-07-29T18:52:14.277Z,99658.38
2022-07-29T19:02:20.168Z,99668.77
2022-07-29T19:12:26.376Z,99674.48
2022-07-29T19:22:33.450Z,99680.52
2022-07-29T19:32:39.947Z,99684.50
2022-07-29T19:42:46.042Z,99677.08
2022-07-29T19:52:52.121Z,99676.83
2022-07-29T20:02:58.429Z,99668.70
2022-07-29T20:13:04.377Z,99654.73
2022-07-29T20:23:11.705Z,99647.98
2022-07-29T20:33:17.485Z,99653.16
2022-07-29T20:43:23.328Z,99645.62
2022-07-29T20:53:29.301Z,99645.19
2022-07-29T21:03:35.418Z,99640.54
2022-07-29T21:13:41.561Z,99646.20
2022-07-29T21:23:47.536Z,99641.30
2022-07-29T21:33:54.214Z,99637.17
2022-07-29T21:44:00.103Z,99634.58
2022-07-29T21:54:07.382Z,99631.55
2022-07-29T22:04:14.447Z,99628.55
2022-07-29T22:14:20.524Z,99634.27
2022-07-29T22:24:26.448Z,99636.64
2022-07-29T22:34:37.824Z,99635.60
2022-07-29T22:44:43.938Z,99637.96
2022-07-29T22:54:49.794Z,99624.42
2022-07-29T23:04:55.604Z,99619.41
2022-07-29T23:15:01.381Z,99608.64
2022-07-29T23:25:08.830Z,99595.08
2022-07-29T23:35:14.566Z,99585.79
2022-07-29T23:45:20.722Z,99590.68
2022-07-29T23:55:38.663Z,99577.71
